sensor_id;sensor_type;location;lat;lon;timestamp;P1;durP1;ratioP1;P2;durP2;ratioP2
65033;SDS011;51601;51.356;12.458;2024-01-15T00:03:59;10.70;;;4.60;;
65033;SDS011;51601;51.356;12.458;2024-01-15T00:08:18;9.00;;;3.58;;
65033;SDS011;51601;51.356;12.458;2024-01-15T00:12:38;11.10;;;4.63;;
65033;SDS011;51601;51.356;12.458;2024-01-15T00:16:56;11.13;;;4.97;;
65033;SDS011;51601;51.356;12.458;2024-01-15T00:21:14;10.40;;;4.17;;
65033;SDS011;51601;51.356;12.458;2024-01-15T00:25:37;15.60;;;6.25;;
65033;SDS011;51601;51.356;12.458;2024-01-15T00:29:57;14.20;;;4.60;;
65033;SDS011;51601;51.356;12.458;2024-01-15T00:34:14;11.97;;;5.20;;
65033;SDS011;51601;51.356;12.458;2024-01-15T00:38:32;13.77;;;5.20;;
65033;SDS011;51601;51.356;12.458;2024-01-15T00:42:53;9.00;;;4.40;;
65033;SDS011;51601;51.356;12.458;2024-01-15T00:47:12;15.10;;;5.33;;
65033;SDS011;51601;51.356;12.458;2024-01-15T00:51:30;7.63;;;2.53;;
65033;SDS011;51601;51.356;12.458;2024-01-15T00:55:48;9.35;;;3.85;;
65033;SDS011;51601;51.356;12.458;2024-01-15T01:00:08;11.85;;;5.30;;
65033;SDS011;51601;51.356;12.458;2024-01-15T01:04:27;10.30;;;4.13;;
65033;SDS011;51601;51.356;12.458;2024-01-15T01:08:45;13.00;;;5.90;;
65033;SDS011;51601;51.356;12.458;2024-01-15T01:13:03;12.80;;;6.03;;
65033;SDS011;51601;51.356;12.458;2024-01-15T01:17:22;11.27;;;4.03;;
65033;SDS011;51601;51.356;12.458;2024-01-15T01:21:40;9.90;;;4.03;;
65033;SDS011;51601;51.356;12.458;2024-01-15T01:25:58;11.25;;;4.78;;
65033;SDS011;51601;51.356;12.458;2024-01-15T01:30:16;11.97;;;4.10;;
65033;SDS011;51601;51.356;12.458;2024-01-15T01:34:39;9.48;;;3.60;;
65033;SDS011;51601;51.356;12.458;2024-01-15T01:38:59;15.13;;;6.05;;
65033;SDS011;51601;51.356;12.458;2024-01-15T01:43:17;9.63;;;4.55;;
65033;SDS011;51601;51.356;12.458;2024-01-15T01:47:35;8.73;;;3.83;;
65033;SDS011;51601;51.356;12.458;2024-01-15T01:51:54;15.88;;;6.15;;
65033;SDS011;51601;51.356;12.458;2024-01-15T01:56:14;12.63;;;4.82;;
65033;SDS011;51601;51.356;12.458;2024-01-15T02:00:35;10.07;;;4.30;;
65033;SDS011;51601;51.356;12.458;2024-01-15T02:04:53;11.25;;;4.47;;
65033;SDS011;51601;51.356;12.458;2024-01-15T02:09:12;14.00;;;6.93;;
65033;SDS011;51601;51.356;12.458;2024-01-15T02:13:35;11.80;;;4.60;;
65033;SDS011;51601;51.356;12.458;2024-01-15T02:17:57;12.13;;;5.93;;
65033;SDS011;51601;51.356;12.458;2024-01-15T02:22:18;12.15;;;5.15;;
65033;SDS011;51601;51.356;12.458;2024-01-15T02:26:40;11.10;;;4.13;;
65033;SDS011;51601;51.356;12.458;2024-01-15T02:30:57;8.87;;;3.63;;
65033;SDS011;51601;51.356;12.458;2024-01-15T02:35:15;13.07;;;4.93;;
65033;SDS011;51601;51.356;12.458;2024-01-15T02:39:33;7.18;;;3.22;;
65033;SDS011;51601;51.356;12.458;2024-01-15T02:43:52;6.53;;;2.73;;
65033;SDS011;51601;51.356;12.458;2024-01-15T02:48:09;9.32;;;4.63;;
65033;SDS011;51601;51.356;12.458;2024-01-15T02:52:27;9.95;;;3.55;;
65033;SDS011;51601;51.356;12.458;2024-01-15T02:56:45;9.63;;;3.93;;
65033;SDS011;51601;51.356;12.458;2024-01-15T03:01:04;10.23;;;4.28;;
65033;SDS011;51601;51.356;12.458;2024-01-15T03:05:24;13.60;;;5.85;;
65033;SDS011;51601;51.356;12.458;2024-01-15T03:09:42;13.88;;;6.13;;
65033;SDS011;51601;51.356;12.458;2024-01-15T03:14:00;9.13;;;3.80;;
65033;SDS011;51601;51.356;12.458;2024-01-15T03:18:20;9.57;;;3.55;;
65033;SDS011;51601;51.356;12.458;2024-01-15T03:22:39;13.98;;;6.05;;
65033;SDS011;51601;51.356;12.458;2024-01-15T03:26:58;9.13;;;3.80;;
65033;SDS011;51601;51.356;12.458;2024-01-15T03:31:15;12.23;;;4.60;;
65033;SDS011;51601;51.356;12.458;2024-01-15T03:35:35;8.45;;;3.90;;
65033;SDS011;51601;51.356;12.458;2024-01-15T03:39:52;13.47;;;3.90;;
65033;SDS011;51601;51.356;12.458;2024-01-15T03:44:10;9.50;;;3.60;;
65033;SDS011;51601;51.356;12.458;2024-01-15T03:48:31;8.80;;;4.15;;
65033;SDS011;51601;51.356;12.458;2024-01-15T03:52:50;9.20;;;4.00;;
65033;SDS011;51601;51.356;12.458;2024-01-15T03:57:07;8.73;;;3.53;;
65033;SDS011;51601;51.356;12.458;2024-01-15T04:01:25;10.90;;;4.22;;
65033;SDS011;51601;51.356;12.458;2024-01-15T04:05:46;9.18;;;3.67;;
65033;SDS011;51601;51.356;12.458;2024-01-15T04:10:06;7.37;;;3.40;;
65033;SDS011;51601;51.356;12.458;2024-01-15T04:14:25;7.43;;;3.33;;
65033;SDS011;51601;51.356;12.458;2024-01-15T04:18:43;10.85;;;3.80;;
65033;SDS011;51601;51.356;12.458;2024-01-15T04:23:01;11.73;;;4.23;;
65033;SDS011;51601;51.356;12.458;2024-01-15T04:27:21;7.35;;;3.22;;
65033;SDS011;51601;51.356;12.458;2024-01-15T04:31:40;5.70;;;2.50;;
65033;SDS011;51601;51.356;12.458;2024-01-15T04:36:01;8.90;;;2.80;;
65033;SDS011;51601;51.356;12.458;2024-01-15T04:40:20;11.33;;;4.70;;
65033;SDS011;51601;51.356;12.458;2024-01-15T04:44:39;7.70;;;2.75;;
65033;SDS011;51601;51.356;12.458;2024-01-15T04:48:56;8.77;;;3.25;;
65033;SDS011;51601;51.356;12.458;2024-01-15T04:53:14;8.43;;;3.23;;
65033;SDS011;51601;51.356;12.458;2024-01-15T04:57:32;10.13;;;3.80;;
65033;SDS011;51601;51.356;12.458;2024-01-15T05:01:51;9.02;;;3.80;;
65033;SDS011;51601;51.356;12.458;2024-01-15T05:06:10;9.27;;;3.50;;
65033;SDS011;51601;51.356;12.458;2024-01-15T05:10:29;9.20;;;3.95;;
65033;SDS011;51601;51.356;12.458;2024-01-15T05:14:47;8.60;;;3.58;;
65033;SDS011;51601;51.356;12.458;2024-01-15T05:19:07;6.38;;;2.17;;
65033;SDS011;51601;51.356;12.458;2024-01-15T05:23:27;7.10;;;3.07;;
65033;SDS011;51601;51.356;12.458;2024-01-15T05:27:45;8.82;;;3.58;;
65033;SDS011;51601;51.356;12.458;2024-01-15T05:32:03;9.45;;;3.22;;
65033;SDS011;51601;51.356;12.458;2024-01-15T05:36:22;8.30;;;3.43;;
65033;SDS011;51601;51.356;12.458;2024-01-15T05:40:42;5.72;;;2.15;;
65033;SDS011;51601;51.356;12.458;2024-01-15T05:45:00;9.07;;;3.00;;
65033;SDS011;51601;51.356;12.458;2024-01-15T05:49:21;7.43;;;2.63;;
65033;SDS011;51601;51.356;12.458;2024-01-15T05:53:40;10.27;;;4.80;;
65033;SDS011;51601;51.356;12.458;2024-01-15T05:58:00;9.32;;;4.15;;
65033;SDS011;51601;51.356;12.458;2024-01-15T06:02:18;6.75;;;2.88;;
65033;SDS011;51601;51.356;12.458;2024-01-15T06:06:36;12.27;;;4.93;;
65033;SDS011;51601;51.356;12.458;2024-01-15T06:10:57;5.57;;;2.17;;
65033;SDS011;51601;51.356;12.458;2024-01-15T06:15:19;6.13;;;2.42;;
65033;SDS011;51601;51.356;12.458;2024-01-15T06:19:37;8.30;;;3.27;;
65033;SDS011;51601;51.356;12.458;2024-01-15T06:23:55;8.32;;;3.55;;
65033;SDS011;51601;51.356;12.458;2024-01-15T06:28:14;10.48;;;4.15;;
65033;SDS011;51601;51.356;12.458;2024-01-15T06:32:31;7.97;;;3.30;;
65033;SDS011;51601;51.356;12.458;2024-01-15T06:36:49;8.15;;;3.53;;
65033;SDS011;51601;51.356;12.458;2024-01-15T06:41:07;9.48;;;3.15;;
65033;SDS011;51601;51.356;12.458;2024-01-15T06:45:26;10.15;;;4.05;;
65033;SDS011;51601;51.356;12.458;2024-01-15T06:49:43;8.73;;;4.13;;
65033;SDS011;51601;51.356;12.458;2024-01-15T06:54:01;5.18;;;1.90;;
65033;SDS011;51601;51.356;12.458;2024-01-15T06:58:19;10.27;;;3.63;;
65033;SDS011;51601;51.356;12.458;2024-01-15T07:02:38;8.80;;;3.67;;
65033;SDS011;51601;51.356;12.458;2024-01-15T07:06:55;6.47;;;2.47;;
65033;SDS011;51601;51.356;12.458;2024-01-15T07:11:13;9.13;;;3.50;;
65033;SDS011;51601;51.356;12.458;2024-01-15T07:15:31;10.93;;;2.80;;
65033;SDS011;51601;51.356;12.458;2024-01-15T07:19:51;9.48;;;3.50;;
65033;SDS011;51601;51.356;12.458;2024-01-15T07:24:11;8.18;;;3.15;;
65033;SDS011;51601;51.356;12.458;2024-01-15T07:28:29;10.35;;;3.55;;
65033;SDS011;51601;51.356;12.458;2024-01-15T07:32:46;8.60;;;3.63;;
65033;SDS011;51601;51.356;12.458;2024-01-15T07:37:06;10.00;;;3.53;;
65033;SDS011;51601;51.356;12.458;2024-01-15T07:41:26;10.52;;;3.78;;
65033;SDS011;51601;51.356;12.458;2024-01-15T07:45:44;14.90;;;3.17;;
65033;SDS011;51601;51.356;12.458;2024-01-15T07:50:02;11.35;;;3.22;;
65033;SDS011;51601;51.356;12.458;2024-01-15T07:54:25;8.20;;;3.28;;
65033;SDS011;51601;51.356;12.458;2024-01-15T07:58:44;9.97;;;4.03;;
65033;SDS011;51601;51.356;12.458;2024-01-15T08:03:02;5.60;;;2.35;;
65033;SDS011;51601;51.356;12.458;2024-01-15T08:07:20;13.05;;;4.57;;
65033;SDS011;51601;51.356;12.458;2024-01-15T08:11:40;10.88;;;3.53;;
65033;SDS011;51601;51.356;12.458;2024-01-15T08:15:59;10.20;;;3.87;;
65033;SDS011;51601;51.356;12.458;2024-01-15T08:20:18;8.07;;;2.60;;
65033;SDS011;51601;51.356;12.458;2024-01-15T08:24:36;10.70;;;2.80;;
65033;SDS011;51601;51.356;12.458;2024-01-15T08:28:55;7.17;;;2.80;;
65033;SDS011;51601;51.356;12.458;2024-01-15T08:33:12;9.15;;;4.35;;
65033;SDS011;51601;51.356;12.458;2024-01-15T08:37:39;9.93;;;4.30;;
65033;SDS011;51601;51.356;12.458;2024-01-15T08:41:57;9.13;;;3.97;;
65033;SDS011;51601;51.356;12.458;2024-01-15T08:46:16;6.47;;;2.20;;
65033;SDS011;51601;51.356;12.458;2024-01-15T08:50:36;7.80;;;3.08;;
65033;SDS011;51601;51.356;12.458;2024-01-15T08:54:55;8.13;;;3.13;;
65033;SDS011;51601;51.356;12.458;2024-01-15T08:59:12;7.13;;;2.80;;
65033;SDS011;51601;51.356;12.458;2024-01-15T09:03:32;5.80;;;2.60;;
65033;SDS011;51601;51.356;12.458;2024-01-15T09:07:51;11.20;;;3.17;;
65033;SDS011;51601;51.356;12.458;2024-01-15T09:12:09;8.87;;;3.30;;
65033;SDS011;51601;51.356;12.458;2024-01-15T09:16:31;9.27;;;2.78;;
65033;SDS011;51601;51.356;12.458;2024-01-15T09:20:50;7.22;;;3.28;;
65033;SDS011;51601;51.356;12.458;2024-01-15T09:25:07;6.17;;;2.50;;
65033;SDS011;51601;51.356;12.458;2024-01-15T09:29:25;7.63;;;2.47;;
65033;SDS011;51601;51.356;12.458;2024-01-15T09:33:43;7.18;;;2.13;;
65033;SDS011;51601;51.356;12.458;2024-01-15T09:38:05;9.05;;;3.55;;
65033;SDS011;51601;51.356;12.458;2024-01-15T09:42:22;7.87;;;2.77;;
65033;SDS011;51601;51.356;12.458;2024-01-15T09:46:43;9.45;;;3.45;;
65033;SDS011;51601;51.356;12.458;2024-01-15T09:51:01;8.65;;;3.80;;
65033;SDS011;51601;51.356;12.458;2024-01-15T09:55:21;7.87;;;3.17;;
65033;SDS011;51601;51.356;12.458;2024-01-15T09:59:41;7.95;;;3.20;;
65033;SDS011;51601;51.356;12.458;2024-01-15T10:04:01;10.90;;;3.97;;
65033;SDS011;51601;51.356;12.458;2024-01-15T10:08:20;8.93;;;3.67;;
65033;SDS011;51601;51.356;12.458;2024-01-15T10:12:42;6.53;;;2.90;;
65033;SDS011;51601;51.356;12.458;2024-01-15T10:17:06;7.50;;;2.75;;
65033;SDS011;51601;51.356;12.458;2024-01-15T10:21:31;6.57;;;2.28;;
65033;SDS011;51601;51.356;12.458;2024-01-15T10:25:50;6.17;;;2.77;;
65033;SDS011;51601;51.356;12.458;2024-01-15T10:30:10;8.02;;;3.10;;
65033;SDS011;51601;51.356;12.458;2024-01-15T10:34:30;5.97;;;2.17;;
65033;SDS011;51601;51.356;12.458;2024-01-15T10:38:47;6.90;;;2.53;;
65033;SDS011;51601;51.356;12.458;2024-01-15T10:43:06;5.90;;;2.30;;
65033;SDS011;51601;51.356;12.458;2024-01-15T10:47:25;11.13;;;3.15;;
65033;SDS011;51601;51.356;12.458;2024-01-15T10:51:45;7.93;;;3.00;;
65033;SDS011;51601;51.356;12.458;2024-01-15T10:56:06;9.93;;;2.70;;
65033;SDS011;51601;51.356;12.458;2024-01-15T11:00:27;8.20;;;2.60;;
65033;SDS011;51601;51.356;12.458;2024-01-15T11:04:46;9.25;;;3.08;;
65033;SDS011;51601;51.356;12.458;2024-01-15T11:09:06;6.97;;;2.87;;
65033;SDS011;51601;51.356;12.458;2024-01-15T11:13:39;7.60;;;3.28;;
65033;SDS011;51601;51.356;12.458;2024-01-15T11:17:58;6.95;;;2.85;;
65033;SDS011;51601;51.356;12.458;2024-01-15T11:27:04;9.05;;;3.45;;
65033;SDS011;51601;51.356;12.458;2024-01-15T11:31:25;7.03;;;2.83;;
65033;SDS011;51601;51.356;12.458;2024-01-15T11:35:50;11.63;;;4.00;;
65033;SDS011;51601;51.356;12.458;2024-01-15T11:40:09;10.57;;;3.28;;
65033;SDS011;51601;51.356;12.458;2024-01-15T11:44:29;8.45;;;4.05;;
65033;SDS011;51601;51.356;12.458;2024-01-15T11:48:47;8.10;;;3.33;;
65033;SDS011;51601;51.356;12.458;2024-01-15T11:53:27;7.83;;;2.70;;
65033;SDS011;51601;51.356;12.458;2024-01-15T11:57:52;10.20;;;3.85;;
65033;SDS011;51601;51.356;12.458;2024-01-15T12:02:12;8.38;;;3.08;;
65033;SDS011;51601;51.356;12.458;2024-01-15T12:06:30;6.57;;;2.57;;
65033;SDS011;51601;51.356;12.458;2024-01-15T12:10:48;7.40;;;3.10;;
65033;SDS011;51601;51.356;12.458;2024-01-15T12:15:08;8.25;;;3.65;;
65033;SDS011;51601;51.356;12.458;2024-01-15T12:19:27;12.47;;;5.23;;
65033;SDS011;51601;51.356;12.458;2024-01-15T12:23:45;7.63;;;2.50;;
65033;SDS011;51601;51.356;12.458;2024-01-15T12:28:03;7.28;;;3.10;;
65033;SDS011;51601;51.356;12.458;2024-01-15T12:32:23;7.78;;;2.00;;
65033;SDS011;51601;51.356;12.458;2024-01-15T12:36:42;9.60;;;2.83;;
65033;SDS011;51601;51.356;12.458;2024-01-15T12:41:01;8.32;;;3.58;;
65033;SDS011;51601;51.356;12.458;2024-01-15T12:45:19;9.45;;;3.65;;
65033;SDS011;51601;51.356;12.458;2024-01-15T12:49:38;8.10;;;3.83;;
65033;SDS011;51601;51.356;12.458;2024-01-15T12:53:58;7.80;;;2.60;;
65033;SDS011;51601;51.356;12.458;2024-01-15T12:58:16;5.57;;;2.50;;
65033;SDS011;51601;51.356;12.458;2024-01-15T13:02:37;8.20;;;2.60;;
65033;SDS011;51601;51.356;12.458;2024-01-15T13:06:59;6.78;;;2.47;;
65033;SDS011;51601;51.356;12.458;2024-01-15T13:11:19;7.10;;;2.53;;
65033;SDS011;51601;51.356;12.458;2024-01-15T13:15:37;4.80;;;2.10;;
65033;SDS011;51601;51.356;12.458;2024-01-15T13:19:56;10.23;;;3.97;;
65033;SDS011;51601;51.356;12.458;2024-01-15T13:24:15;6.72;;;2.83;;
65033;SDS011;51601;51.356;12.458;2024-01-15T13:28:34;7.85;;;2.92;;
65033;SDS011;51601;51.356;12.458;2024-01-15T13:32:52;7.63;;;2.90;;
65033;SDS011;51601;51.356;12.458;2024-01-15T13:37:14;5.90;;;2.22;;
65033;SDS011;51601;51.356;12.458;2024-01-15T13:41:33;6.38;;;2.28;;
65033;SDS011;51601;51.356;12.458;2024-01-15T13:45:50;7.73;;;3.00;;
65033;SDS011;51601;51.356;12.458;2024-01-15T13:50:08;7.28;;;2.42;;
65033;SDS011;51601;51.356;12.458;2024-01-15T13:54:26;7.45;;;2.15;;
65033;SDS011;51601;51.356;12.458;2024-01-15T13:59:04;6.55;;;2.63;;
65033;SDS011;51601;51.356;12.458;2024-01-15T14:03:21;6.43;;;2.53;;
65033;SDS011;51601;51.356;12.458;2024-01-15T14:07:38;7.88;;;2.55;;
65033;SDS011;51601;51.356;12.458;2024-01-15T14:11:57;5.07;;;2.17;;
65033;SDS011;51601;51.356;12.458;2024-01-15T14:16:16;10.10;;;2.37;;
65033;SDS011;51601;51.356;12.458;2024-01-15T14:20:42;7.32;;;3.13;;
65033;SDS011;51601;51.356;12.458;2024-01-15T14:25:00;5.90;;;2.00;;
65033;SDS011;51601;51.356;12.458;2024-01-15T14:29:18;6.37;;;2.47;;
65033;SDS011;51601;51.356;12.458;2024-01-15T14:33:40;5.78;;;1.70;;
65033;SDS011;51601;51.356;12.458;2024-01-15T14:38:00;5.47;;;2.53;;
65033;SDS011;51601;51.356;12.458;2024-01-15T14:42:18;10.20;;;3.00;;
65033;SDS011;51601;51.356;12.458;2024-01-15T14:46:36;5.13;;;2.27;;
65033;SDS011;51601;51.356;12.458;2024-01-15T14:50:57;4.63;;;1.88;;
65033;SDS011;51601;51.356;12.458;2024-01-15T14:55:19;6.85;;;2.13;;
65033;SDS011;51601;51.356;12.458;2024-01-15T14:59:40;8.57;;;3.20;;
65033;SDS011;51601;51.356;12.458;2024-01-15T15:03:58;6.28;;;2.22;;
65033;SDS011;51601;51.356;12.458;2024-01-15T15:08:17;6.63;;;2.45;;
65033;SDS011;51601;51.356;12.458;2024-01-15T15:12:37;4.50;;;2.07;;
65033;SDS011;51601;51.356;12.458;2024-01-15T15:16:55;7.60;;;2.85;;
65033;SDS011;51601;51.356;12.458;2024-01-15T15:21:13;4.90;;;2.10;;
65033;SDS011;51601;51.356;12.458;2024-01-15T15:25:32;7.80;;;3.20;;
65033;SDS011;51601;51.356;12.458;2024-01-15T15:29:52;7.00;;;2.53;;
65033;SDS011;51601;51.356;12.458;2024-01-15T15:34:10;6.70;;;2.42;;
65033;SDS011;51601;51.356;12.458;2024-01-15T15:38:28;6.45;;;2.90;;
65033;SDS011;51601;51.356;12.458;2024-01-15T15:42:48;6.03;;;2.47;;
65033;SDS011;51601;51.356;12.458;2024-01-15T15:47:04;4.10;;;1.55;;
65033;SDS011;51601;51.356;12.458;2024-01-15T15:51:22;7.82;;;2.75;;
65033;SDS011;51601;51.356;12.458;2024-01-15T15:55:41;11.37;;;3.80;;
65033;SDS011;51601;51.356;12.458;2024-01-15T16:00:00;4.82;;;1.80;;
65033;SDS011;51601;51.356;12.458;2024-01-15T16:04:26;8.32;;;2.70;;
65033;SDS011;51601;51.356;12.458;2024-01-15T16:08:44;7.68;;;2.67;;
65033;SDS011;51601;51.356;12.458;2024-01-15T16:13:02;5.50;;;2.10;;
65033;SDS011;51601;51.356;12.458;2024-01-15T16:17:21;8.70;;;3.28;;
65033;SDS011;51601;51.356;12.458;2024-01-15T16:22:00;5.88;;;2.05;;
65033;SDS011;51601;51.356;12.458;2024-01-15T16:26:39;7.67;;;2.53;;
65033;SDS011;51601;51.356;12.458;2024-01-15T16:30:57;8.05;;;2.70;;
65033;SDS011;51601;51.356;12.458;2024-01-15T16:35:26;5.60;;;2.35;;
65033;SDS011;51601;51.356;12.458;2024-01-15T16:39:46;7.30;;;2.57;;
65033;SDS011;51601;51.356;12.458;2024-01-15T16:44:04;8.10;;;2.33;;
65033;SDS011;51601;51.356;12.458;2024-01-15T16:48:22;7.82;;;2.30;;
65033;SDS011;51601;51.356;12.458;2024-01-15T16:52:41;8.60;;;3.03;;
65033;SDS011;51601;51.356;12.458;2024-01-15T16:56:58;6.33;;;2.67;;
65033;SDS011;51601;51.356;12.458;2024-01-15T17:01:16;7.35;;;2.30;;
65033;SDS011;51601;51.356;12.458;2024-01-15T17:05:34;6.00;;;1.95;;
65033;SDS011;51601;51.356;12.458;2024-01-15T17:09:54;6.13;;;2.30;;
65033;SDS011;51601;51.356;12.458;2024-01-15T17:14:13;5.30;;;1.92;;
65033;SDS011;51601;51.356;12.458;2024-01-15T17:18:34;6.68;;;2.53;;
65033;SDS011;51601;51.356;12.458;2024-01-15T17:22:52;4.10;;;1.57;;
65033;SDS011;51601;51.356;12.458;2024-01-15T17:27:12;6.25;;;2.33;;
65033;SDS011;51601;51.356;12.458;2024-01-15T17:31:28;8.02;;;2.65;;
65033;SDS011;51601;51.356;12.458;2024-01-15T17:35:50;5.55;;;1.98;;
65033;SDS011;51601;51.356;12.458;2024-01-15T17:40:08;5.70;;;1.93;;
65033;SDS011;51601;51.356;12.458;2024-01-15T17:44:27;6.40;;;2.38;;
65033;SDS011;51601;51.356;12.458;2024-01-15T17:48:47;3.65;;;1.40;;
65033;SDS011;51601;51.356;12.458;2024-01-15T17:53:05;4.27;;;2.03;;
65033;SDS011;51601;51.356;12.458;2024-01-15T17:57:23;5.45;;;2.03;;
65033;SDS011;51601;51.356;12.458;2024-01-15T18:01:42;4.93;;;1.83;;
65033;SDS011;51601;51.356;12.458;2024-01-15T18:06:02;7.80;;;2.67;;
65033;SDS011;51601;51.356;12.458;2024-01-15T18:10:20;5.50;;;2.25;;
65033;SDS011;51601;51.356;12.458;2024-01-15T18:14:42;5.63;;;2.05;;
65033;SDS011;51601;51.356;12.458;2024-01-15T18:19:01;3.60;;;1.42;;
65033;SDS011;51601;51.356;12.458;2024-01-15T18:23:17;5.30;;;2.20;;
65033;SDS011;51601;51.356;12.458;2024-01-15T18:27:36;6.97;;;2.20;;
65033;SDS011;51601;51.356;12.458;2024-01-15T18:31:53;5.95;;;2.28;;
65033;SDS011;51601;51.356;12.458;2024-01-15T18:36:13;6.23;;;2.53;;
65033;SDS011;51601;51.356;12.458;2024-01-15T18:40:30;3.85;;;1.58;;
65033;SDS011;51601;51.356;12.458;2024-01-15T18:44:51;9.70;;;2.30;;
65033;SDS011;51601;51.356;12.458;2024-01-15T18:49:09;9.20;;;2.80;;
65033;SDS011;51601;51.356;12.458;2024-01-15T18:53:28;15.15;;;1.55;;
65033;SDS011;51601;51.356;12.458;2024-01-15T18:57:48;7.32;;;2.78;;
65033;SDS011;51601;51.356;12.458;2024-01-15T19:02:06;3.65;;;1.58;;
65033;SDS011;51601;51.356;12.458;2024-01-15T19:06:24;5.90;;;1.90;;
65033;SDS011;51601;51.356;12.458;2024-01-15T19:10:43;4.40;;;1.98;;
65033;SDS011;51601;51.356;12.458;2024-01-15T19:15:00;5.88;;;2.40;;
65033;SDS011;51601;51.356;12.458;2024-01-15T19:19:18;4.93;;;1.93;;
65033;SDS011;51601;51.356;12.458;2024-01-15T19:23:36;5.28;;;1.63;;
65033;SDS011;51601;51.356;12.458;2024-01-15T19:27:56;4.90;;;2.00;;
65033;SDS011;51601;51.356;12.458;2024-01-15T19:32:13;5.03;;;1.80;;
65033;SDS011;51601;51.356;12.458;2024-01-15T19:36:30;6.45;;;2.97;;
65033;SDS011;51601;51.356;12.458;2024-01-15T19:40:48;9.50;;;3.42;;
65033;SDS011;51601;51.356;12.458;2024-01-15T19:45:08;7.13;;;3.25;;
65033;SDS011;51601;51.356;12.458;2024-01-15T19:49:28;7.40;;;2.87;;
65033;SDS011;51601;51.356;12.458;2024-01-15T19:53:46;8.38;;;2.90;;
65033;SDS011;51601;51.356;12.458;2024-01-15T19:58:04;7.82;;;2.80;;
65033;SDS011;51601;51.356;12.458;2024-01-15T20:02:23;7.90;;;2.57;;
65033;SDS011;51601;51.356;12.458;2024-01-15T20:06:43;5.68;;;2.03;;
65033;SDS011;51601;51.356;12.458;2024-01-15T20:11:01;6.82;;;2.45;;
65033;SDS011;51601;51.356;12.458;2024-01-15T20:15:19;8.50;;;3.13;;
65033;SDS011;51601;51.356;12.458;2024-01-15T20:19:42;9.00;;;3.28;;
65033;SDS011;51601;51.356;12.458;2024-01-15T20:23:58;9.40;;;2.53;;
65033;SDS011;51601;51.356;12.458;2024-01-15T20:28:19;6.03;;;1.95;;
65033;SDS011;51601;51.356;12.458;2024-01-15T20:32:38;5.80;;;2.53;;
65033;SDS011;51601;51.356;12.458;2024-01-15T20:36:57;6.97;;;2.70;;
65033;SDS011;51601;51.356;12.458;2024-01-15T20:41:17;7.82;;;2.35;;
65033;SDS011;51601;51.356;12.458;2024-01-15T20:45:35;6.03;;;2.30;;
65033;SDS011;51601;51.356;12.458;2024-01-15T20:49:53;6.90;;;2.20;;
65033;SDS011;51601;51.356;12.458;2024-01-15T20:54:12;7.88;;;3.00;;
65033;SDS011;51601;51.356;12.458;2024-01-15T20:58:32;7.07;;;2.53;;
65033;SDS011;51601;51.356;12.458;2024-01-15T21:02:50;6.93;;;2.28;;
65033;SDS011;51601;51.356;12.458;2024-01-15T21:07:08;7.68;;;2.72;;
65033;SDS011;51601;51.356;12.458;2024-01-15T21:11:28;5.60;;;1.92;;
65033;SDS011;51601;51.356;12.458;2024-01-15T21:15:47;3.97;;;1.37;;
65033;SDS011;51601;51.356;12.458;2024-01-15T21:20:06;5.60;;;1.80;;
65033;SDS011;51601;51.356;12.458;2024-01-15T21:24:27;3.35;;;1.20;;
65033;SDS011;51601;51.356;12.458;2024-01-15T21:28:46;3.20;;;1.37;;
65033;SDS011;51601;51.356;12.458;2024-01-15T21:33:06;4.18;;;1.10;;
65033;SDS011;51601;51.356;12.458;2024-01-15T21:37:27;5.32;;;1.52;;
65033;SDS011;51601;51.356;12.458;2024-01-15T21:41:45;2.03;;;0.97;;
65033;SDS011;51601;51.356;12.458;2024-01-15T21:46:04;3.08;;;1.17;;
65033;SDS011;51601;51.356;12.458;2024-01-15T21:50:24;2.67;;;1.10;;
65033;SDS011;51601;51.356;12.458;2024-01-15T21:54:42;4.55;;;1.40;;
65033;SDS011;51601;51.356;12.458;2024-01-15T21:59:02;3.70;;;1.27;;
65033;SDS011;51601;51.356;12.458;2024-01-15T22:03:24;3.90;;;1.00;;
65033;SDS011;51601;51.356;12.458;2024-01-15T22:07:42;1.67;;;0.70;;
65033;SDS011;51601;51.356;12.458;2024-01-15T22:12:00;4.50;;;1.90;;
65033;SDS011;51601;51.356;12.458;2024-01-15T22:16:18;4.28;;;1.25;;
65033;SDS011;51601;51.356;12.458;2024-01-15T22:20:38;4.18;;;1.40;;
65033;SDS011;51601;51.356;12.458;2024-01-15T22:24:58;2.67;;;0.80;;
65033;SDS011;51601;51.356;12.458;2024-01-15T22:29:16;7.65;;;1.33;;
65033;SDS011;51601;51.356;12.458;2024-01-15T22:33:34;4.45;;;1.50;;
65033;SDS011;51601;51.356;12.458;2024-01-15T22:37:53;4.97;;;1.25;;
65033;SDS011;51601;51.356;12.458;2024-01-15T22:42:13;4.33;;;1.10;;
65033;SDS011;51601;51.356;12.458;2024-01-15T22:46:31;2.88;;;1.08;;
65033;SDS011;51601;51.356;12.458;2024-01-15T22:50:52;5.88;;;1.15;;
65033;SDS011;51601;51.356;12.458;2024-01-15T22:55:12;4.70;;;1.30;;
65033;SDS011;51601;51.356;12.458;2024-01-15T22:59:28;5.18;;;1.23;;
65033;SDS011;51601;51.356;12.458;2024-01-15T23:03:46;4.15;;;1.40;;
65033;SDS011;51601;51.356;12.458;2024-01-15T23:08:04;3.77;;;0.97;;
65033;SDS011;51601;51.356;12.458;2024-01-15T23:12:24;6.68;;;1.30;;
65033;SDS011;51601;51.356;12.458;2024-01-15T23:16:44;5.07;;;1.25;;
65033;SDS011;51601;51.356;12.458;2024-01-15T23:21:02;3.78;;;1.00;;
65033;SDS011;51601;51.356;12.458;2024-01-15T23:25:20;6.17;;;1.67;;
65033;SDS011;51601;51.356;12.458;2024-01-15T23:29:39;2.13;;;0.98;;
65033;SDS011;51601;51.356;12.458;2024-01-15T23:33:59;4.30;;;1.30;;
65033;SDS011;51601;51.356;12.458;2024-01-15T23:38:17;5.97;;;1.83;;
65033;SDS011;51601;51.356;12.458;2024-01-15T23:42:35;5.07;;;1.95;;
65033;SDS011;51601;51.356;12.458;2024-01-15T23:46:54;5.60;;;1.48;;
65033;SDS011;51601;51.356;12.458;2024-01-15T23:51:11;6.60;;;2.00;;
65033;SDS011;51601;51.356;12.458;2024-01-15T23:55:29;4.65;;;1.38;;
65033;SDS011;51601;51.356;12.458;2024-01-15T23:59:47;5.20;;;1.77;;
